Latest Weather Observations for Lake Grace

IDW60801

Issued at 5:12 pm WST Sunday 19 April 2015 (issued every 30 minutes, with the page automatically refreshed every 10 minutes)

About weather observations | Map of weather stations | Latest weather observations for WA | Other Formats
Station Details ID: 010911 Name: LAKE GRACE Lat: -33.10 Lon: 118.46 Height: 286.0 m
Data from the previous 72 hours. | See also: Recent months at Lake Grace
Date/Time
WST
Temp
°C
App
Temp
°C
Dew
Point
Rel
Hum
%
Delta-T
°C
Wind Press
QNH
hPa
Press
MSL
hPa
Rain
since 9 am
mm
Dir
 
Spd
km/h
Gust
km/h
Spd
kts
Gust
kts
19/05:00pm 23.4 20.3 9.0 40 7.8 ENE 15 20 8 11 1026.9 1026.2 0.0
19/04:30pm 23.9 20.5 9.1 39 8.0 ENE 17 24 9 13 1026.9 1026.2 0.0
19/04:00pm 24.3 21.3 9.1 38 8.3 NE 15 24 8 13 1026.9 1026.2 0.0
19/03:30pm 24.4 21.2 8.4 36 8.6 ENE 15 24 8 13 1027.1 1026.4 0.0
19/03:00pm 24.3 21.1 8.3 36 8.6 NNE 15 20 8 11 1027.0 1026.3 0.0
19/02:30pm 24.2 21.0 8.6 37 8.4 NE 15 24 8 13 1027.0 1026.3 0.0
19/02:00pm 23.8 20.4 9.0 39 8.0 NNE 17 24 9 13 1027.1 1026.4 0.0
19/01:30pm 23.8 20.6 8.6 38 8.2 NE 15 24 8 13 1027.4 1026.7 0.0
19/01:00pm 23.5 20.7 9.9 42 7.5 NNE 15 24 8 13 1027.8 1027.2 0.0
19/12:30pm 22.8 19.6 9.9 44 7.1 NNE 17 28 9 15 1028.3 1027.6 0.0
19/12:00pm 22.2 19.1 10.4 47 6.5 NNE 17 26 9 14 1028.8 1028.1 0.0
19/11:30am 21.7 18.7 10.5 49 6.2 NNE 17 26 9 14 1029.2 1028.5 0.0
19/11:00am 21.2 17.7 11.0 52 5.7 NNE 20 30 11 16 1029.4 1028.7 0.0
19/10:30am 20.3 17.1 11.2 56 5.0 NNE 19 32 10 17 1029.8 1029.1 0.0
19/10:00am 19.5 16.2 11.5 60 4.4 NNE 20 33 11 18 1029.9 1029.2 0.0
19/09:30am 18.3 15.0 11.6 65 3.7 NNE 20 28 11 15 1030.1 1029.4 0.0
19/09:00am 16.8 13.1 11.5 71 2.9 NE 22 32 12 17 1030.4 1029.7 0.0
19/08:30am 15.7 13.8 11.7 77 2.2 NE 13 22 7 12 1030.3 1029.6 0.0
19/08:00am 14.2 12.1 11.2 82 1.6 NE 13 20 7 11 1030.0 1029.3 0.0
19/07:30am 13.1 11.7 11.0 87 1.1 ENE 9 13 5 7 1029.8 1029.1 0.0
19/07:00am 11.6 10.3 10.0 90 0.8 ENE 7 13 4 7 1029.4 1028.7 0.0
19/06:30am 11.1 9.3 9.4 89 0.9 E 9 11 5 6 1029.0 1028.3 0.0
19/06:00am 11.2 9.8 9.5 89 0.9 E 7 9 4 5 1028.6 1027.9 0.0
19/05:30am 11.4 10.0 9.5 88 1.0 E 7 13 4 7 1028.5 1027.8 0.0
19/05:00am 11.6 10.2 9.5 87 1.1 E 7 13 4 7 1028.3 1027.6 0.0
19/04:30am 12.0 10.3 9.9 87 1.1 ENE 9 13 5 7 1028.1 1027.4 0.0
19/04:00am 12.2 10.5 9.9 86 1.2 E 9 17 5 9 1027.8 1027.2 0.0
19/03:30am 12.4 10.7 10.0 85 1.2 ENE 9 15 5 8 1027.5 1026.8 0.0
19/03:00am 12.6 10.9 10.0 84 1.3 ESE 9 19 5 10 1027.5 1026.8 0.0
19/02:30am 12.9 11.7 10.4 85 1.3 W 7 13 4 7 1027.6 1027.0 0.0
19/02:00am 13.3 11.9 10.8 85 1.3 ESE 9 17 5 9 1027.5 1026.8 0.0
19/01:30am 13.6 9.7 10.9 84 1.4 ENE 22 32 12 17 1027.3 1026.6 0.0
19/01:00am 13.8 10.3 11.0 83 1.5 ENE 20 30 11 16 1027.4 1026.7 0.0
19/12:30am 13.8 10.9 11.0 83 1.5 ENE 17 24 9 13 1027.5 1026.8 0.0
19/12:00am 13.9 10.0 10.9 82 1.6 ENE 22 35 12 19 1027.4 1026.7 0.0
 
Date/Time
WST
Temp
°C
App
Temp
°C
Dew
Point
Rel
Hum
%
Delta-T
°C
Wind Press
QNH
hPa
Press
MSL
hPa
Rain
since 9 am
mm
Dir
 
Spd
km/h
Gust
km/h
Spd
kts
Gust
kts
18/11:30pm 13.9 9.6 10.9 82 1.6 ENE 24 35 13 19 1027.4 1026.7 0.0
18/11:00pm 14.0 10.1 10.8 81 1.7 E 22 35 12 19 1027.7 1027.1 0.0
18/10:30pm 14.1 10.8 10.9 81 1.7 E 19 28 10 15 1027.7 1027.1 0.0
18/10:00pm 14.4 10.6 11.0 80 1.8 E 22 32 12 17 1027.7 1027.1 0.0
18/09:30pm 14.6 10.8 11.2 80 1.8 E 22 35 12 19 1027.8 1027.2 0.0
18/09:00pm 14.8 11.4 11.2 79 1.9 E 20 32 11 17 1027.6 1027.0 0.0
18/08:30pm 15.0 11.7 11.6 80 1.9 ESE 20 32 11 17 1027.6 1027.0 0.0
18/08:00pm 15.2 12.0 11.8 80 1.9 ESE 20 33 11 18 1027.4 1026.7 0.0
18/07:30pm 15.3 11.4 12.2 82 1.7 E 24 37 13 20 1027.3 1026.6 0.0
18/07:00pm 15.6 12.2 12.4 81 1.8 ESE 22 33 12 18 1027.1 1026.4 0.0
18/06:30pm 15.8 12.4 12.5 81 1.8 ESE 22 35 12 19 1026.7 1026.0 0.0
18/06:00pm 16.1 13.1 12.5 79 2.0 ESE 20 28 11 15 1026.3 1025.6 0.0
18/05:30pm 16.6 13.6 12.4 76 2.3 ESE 20 33 11 18 1025.9 1025.2 0.0
18/05:00pm 18.0 14.7 12.9 72 2.9 ESE 22 35 12 19 1025.7 1025.0 0.0
18/04:30pm 18.4 15.0 12.6 69 3.3 ESE 22 37 12 20 1025.5 1024.8 0.0
18/04:00pm 18.6 15.0 13.0 70 3.2 ESE 24 33 13 18 1025.5 1024.8 0.0
18/03:30pm 19.0 15.0 13.0 68 3.4 ESE 26 39 14 21 1025.3 1024.6 0.0
18/03:00pm 19.4 15.7 12.7 65 3.8 ESE 24 37 13 20 1025.3 1024.6 0.0
18/02:30pm 19.8 16.6 13.0 65 3.9 ESE 22 32 12 17 1025.3 1024.6 0.0
18/02:00pm 20.3 17.3 12.0 59 4.7 ESE 19 28 10 15 1025.1 1024.4 0.0
18/01:30pm 19.7 16.1 12.0 61 4.3 ESE 22 30 12 16 1025.2 1024.5 0.0
18/01:00pm 19.8 17.1 11.8 60 4.5 ESE 17 24 9 13 1025.4 1024.7 0.0
18/12:30pm 20.0 17.3 11.7 59 4.7 ESE 17 28 9 15 1025.8 1025.1 0.0
18/12:00pm 19.2 16.5 11.7 62 4.2 SE 17 28 9 15 1026.2 1025.5 0.0
18/11:30am 18.3 16.0 11.8 66 3.6 ESE 15 24 8 13 1026.5 1025.8 0.0
18/11:00am 18.4 16.1 11.7 65 3.7 SSE 15 24 8 13 1026.7 1026.0 0.0
18/10:30am 17.9 15.6 11.9 68 3.3 SE 15 26 8 14 1026.9 1026.2 0.0
18/10:00am 17.0 15.1 11.9 72 2.8 SE 13 17 7 9 1026.7 1026.0 0.0
18/09:30am 16.5 14.9 11.4 72 2.8 SE 11 19 6 10 1026.8 1026.1 0.0
18/09:00am 15.8 14.2 11.4 75 2.4 SE 11 13 6 7 1026.7 1026.0 0.0
18/08:30am 14.3 14.2 12.2 87 1.2 ESE 4 9 2 5 1026.6 1025.9 0.0
18/08:00am 11.8 10.9 10.5 92 0.7 SE 6 9 3 5 1026.4 1025.7 0.0
18/07:30am 10.1 8.7 9.0 93 0.6 SE 6 9 3 5 1026.0 1025.3 0.0
18/07:00am 8.7 7.4 7.6 93 0.5 SE 4 7 2 4 1025.5 1024.8 0.0
18/06:30am 8.4 7.4 7.3 93 0.5 N 2 6 1 3 1025.3 1024.6 0.0
18/06:00am 8.4 7.0 7.3 93 0.5 N 4 6 2 3 1025.0 1024.3 0.0
18/05:30am 8.2 7.5 7.1 93 0.5 CALM 0 0 0 0 1024.8 1024.1 0.0
18/05:00am 8.5 7.9 7.3 92 0.6 CALM 0 0 0 0 1024.5 1023.7 0.0
18/04:30am 8.6 8.0 7.2 91 0.7 CALM 0 0 0 0 1024.4 1023.6 0.0
18/04:00am 9.1 8.6 7.7 91 0.7 CALM 0 0 0 0 1024.0 1023.3 0.0
18/03:30am 9.4 8.9 7.8 90 0.8 CALM 0 0 0 0 1023.9 1023.2 0.0
18/03:00am 9.6 9.1 8.0 90 0.8 CALM 0 0 0 0 1023.9 1023.2 0.0
18/02:30am 9.9 9.5 8.2 89 0.8 CALM 0 4 0 2 1023.9 1023.2 0.0
18/02:00am 10.4 8.9 8.5 88 0.9 SSE 6 6 3 3 1024.0 1023.3 0.0
18/01:30am 10.8 9.8 8.7 87 1.1 SE 4 7 2 4 1023.9 1023.2 0.0
18/01:00am 10.9 9.5 8.7 86 1.1 SSE 6 9 3 5 1023.9 1023.2 0.0
18/12:30am 11.4 9.8 8.8 84 1.3 SE 7 11 4 6 1023.7 1023.0 0.0
18/12:00am 12.5 10.6 9.1 80 1.7 SE 9 15 5 8 1023.5 1022.8 0.0
 
Date/Time
WST
Temp
°C
App
Temp
°C
Dew
Point
Rel
Hum
%
Delta-T
°C
Wind Press
QNH
hPa
Press
MSL
hPa
Rain
since 9 am
mm
Dir
 
Spd
km/h
Gust
km/h
Spd
kts
Gust
kts
17/11:30pm 13.2 10.6 9.5 78 1.9 ESE 13 19 7 10 1023.3 1022.6 0.0
17/11:00pm 13.4 11.2 9.3 76 2.1 ESE 11 15 6 8 1023.2 1022.5 0.0
17/10:30pm 12.7 10.5 7.8 72 2.4 SE 9 11 5 6 1023.4 1022.7 0.0
17/10:00pm 12.8 10.8 7.0 68 2.8 SE 7 9 4 5 1023.6 1022.9 0.0
17/09:30pm 13.3 11.8 6.9 65 3.1 SSE 4 6 2 3 1023.3 1022.6 0.0
17/09:00pm 13.7 11.8 6.8 63 3.4 SE 6 7 3 4 1023.4 1022.7 0.0
17/08:30pm 14.3 12.5 7.1 62 3.6 SE 6 7 3 4 1023.1 1022.4 0.0
17/08:00pm 15.2 13.4 7.0 58 4.1 SSE 6 7 3 4 1023.0 1022.3 0.0
17/07:30pm 16.1 14.2 6.8 54 4.6 SSE 6 9 3 5 1022.8 1022.1 0.0
17/07:00pm 16.9 15.4 6.7 51 5.1 S 4 7 2 4 1022.6 1021.9 0.0
17/06:30pm 18.0 16.1 6.5 47 5.8 S 6 7 3 4 1022.1 1021.4 0.0
17/06:00pm 19.0 16.9 6.5 44 6.3 SSW 7 11 4 6 1021.9 1021.2 0.0
17/05:30pm 20.6 18.3 5.8 38 7.5 SSW 7 11 4 6 1021.7 1021.0 0.0
17/05:00pm 22.3 19.9 5.3 33 8.6 SW 7 11 4 6 1021.4 1020.6 0.0
17/04:30pm 22.7 19.5 5.2 32 8.9 WSW 11 17 6 9 1021.3 1020.5 0.0
17/04:00pm 23.2 20.3 4.7 30 9.3 SW 9 17 5 9 1021.5 1020.7 0.0
17/03:30pm 23.1 19.8 4.6 30 9.3 SSW 11 19 6 10 1021.6 1020.9 0.0
17/03:00pm 22.8 19.3 5.3 32 8.8 W 13 20 7 11 1021.9 1021.2 0.0
17/02:30pm 22.7 19.9 5.2 32 8.9 WSW 9 19 5 10 1021.9 1021.2 0.0
17/02:00pm 22.9 19.9 5.8 33 8.7 W 11 19 6 10 1022.3 1021.6 0.0
17/01:30pm 21.9 18.9 6.2 36 8.0 WSW 11 20 6 11 1022.6 1021.9 0.0
17/01:00pm 21.4 17.7 6.5 38 7.6 SW 15 26 8 14 1023.1 1022.4 0.0
17/12:30pm 21.0 18.6 6.9 40 7.3 WNW 9 19 5 10 1023.7 1023.0 0.0
17/12:00pm 20.7 18.0 7.3 42 6.9 WNW 11 19 6 10 1024.5 1023.7 0.0
17/11:30am 19.3 16.5 7.1 45 6.3 NW 11 17 6 9 1025.2 1024.5 0.0
17/11:00am 18.7 16.0 7.2 47 5.9 NNW 11 17 6 9 1025.7 1025.0 0.0
17/10:30am 18.0 15.6 7.1 49 5.5 NW 9 17 5 9 1026.1 1025.4 0.0
17/10:00am 16.6 14.6 8.6 59 4.1 NW 9 15 5 8 1026.5 1025.8 0.0
17/09:30am 15.2 12.2 7.7 61 3.8 N 13 17 7 9 1026.7 1026.0 0.0
17/09:00am 14.2 10.9 7.9 66 3.2 N 15 20 8 11 1026.6 1025.9 0.0
17/08:30am 12.8 10.5 7.5 70 2.6 N 9 13 5 7 1027.0 1026.3 0.0
17/08:00am 11.5 9.9 8.0 79 1.7 N 6 7 3 4 1027.0 1026.3 0.0
17/07:30am 10.0 7.9 8.1 88 0.9 NNE 9 11 5 6 1026.6 1025.9 0.0
17/07:00am 7.2 6.2 5.7 90 0.7 CALM 0 0 0 0 1026.7 1026.0 0.0
17/06:30am 7.4 6.5 5.9 90 0.7 CALM 0 0 0 0 1027.0 1026.3 0.0
17/06:00am 7.6 5.5 5.9 89 0.8 E 6 7 3 4 1027.1 1026.4 0.0
17/05:30am 7.5 5.4 5.8 89 0.8 SSW 6 7 3 4 1027.5 1026.8 0.0
17/05:00am 7.8 6.9 5.9 88 0.9 CALM 0 0 0 0 1027.4 1026.7 0.0
17/04:30am 7.8 6.8 5.6 86 1.0 CALM 0 0 0 0 1027.4 1026.7 0.0
17/04:00am 8.9 6.9 6.3 84 1.2 WSW 6 9 3 5 1027.4 1026.7 0.0
17/03:30am 9.1 7.5 6.2 82 1.4 N 4 7 2 4 1027.1 1026.4 0.0
17/03:00am 10.6 7.7 6.7 77 1.9 NE 11 19 6 10 1027.2 1026.5 0.0
17/02:30am 11.0 7.4 6.9 76 2.0 NE 15 20 8 11 1027.4 1026.7 0.0
17/02:00am 11.1 7.6 7.2 77 1.9 ENE 15 22 8 12 1027.4 1026.7 0.0
17/01:30am 11.2 7.0 7.5 78 1.8 ENE 19 24 10 13 1027.6 1027.0 0.0
17/01:00am 11.0 7.5 7.3 78 1.8 ENE 15 20 8 11 1028.3 1027.6 0.0
17/12:30am 11.3 7.8 7.4 77 1.9 ENE 15 19 8 10 1028.6 1027.9 0.0
17/12:00am 11.6 8.6 7.5 76 2.0 ENE 13 22 7 12 1028.7 1028.0 0.0
 
Date/Time
WST
Temp
°C
App
Temp
°C
Dew
Point
Rel
Hum
%
Delta-T
°C
Wind Press
QNH
hPa
Press
MSL
hPa
Rain
since 9 am
mm
Dir
 
Spd
km/h
Gust
km/h
Spd
kts
Gust
kts
16/11:30pm 11.6 8.8 6.9 73 2.3 E 11 17 6 9 1028.8 1028.1 0.0
16/11:00pm 12.1 9.3 7.0 71 2.5 E 11 17 6 9 1028.8 1028.1 0.0
16/10:30pm 12.6 9.8 7.1 69 2.7 ESE 11 15 6 8 1029.1 1028.4 0.0
16/10:00pm 12.8 9.7 7.3 69 2.7 ESE 13 17 7 9 1029.3 1028.6 0.0
16/09:30pm 13.1 10.4 7.5 69 2.8 ESE 11 17 6 9 1029.4 1028.7 0.0
16/09:00pm 12.8 10.1 7.3 69 2.7 SE 11 15 6 8 1029.3 1028.6 0.0
16/08:30pm 14.0 11.3 7.3 64 3.3 ESE 11 17 6 9 1029.2 1028.5 0.0
16/08:00pm 14.4 11.7 7.5 63 3.4 E 11 15 6 8 1028.7 1028.0 0.0
16/07:30pm 14.1 12.2 7.4 64 3.3 ESE 7 9 4 5 1029.1 1028.4 0.0
16/07:00pm 14.9 13.0 7.5 61 3.7 SE 7 9 4 5 1029.0 1028.3 0.0
16/06:30pm 16.1 13.4 7.3 56 4.4 SE 11 15 6 8 1028.9 1028.2 0.0
16/06:00pm 16.9 14.1 7.0 52 5.0 SE 11 15 6 8 1028.8 1028.1 0.0
16/05:30pm 18.0 14.4 6.8 48 5.7 SSE 15 22 8 12 1028.6 1027.9 0.0

Other Formats:

Comma delimited format used in spreadsheet applications
http://www.bom.gov.au/fwo/IDW60801/IDW60801.95637.axf

JavaScript Object Notation format (JSON) in row-major order
http://www.bom.gov.au/fwo/IDW60801/IDW60801.95637.json